createdAt,value
2023-05-21T00:02:19.674Z,75.82
2023-05-21T00:04:47.826Z,75.79
2023-05-21T00:07:15.093Z,75.70
2023-05-21T00:09:42.614Z,75.71
2023-05-21T00:12:10.886Z,75.67
2023-05-21T00:14:38.225Z,75.38
2023-05-21T00:17:05.782Z,75.30
2023-05-21T00:19:33.421Z,75.43
2023-05-21T00:22:04.069Z,75.70
2023-05-21T00:24:31.490Z,75.99
2023-05-21T00:26:58.821Z,76.05
2023-05-21T00:29:27.307Z,76.11
2023-05-21T00:31:56.163Z,76.22
2023-05-21T00:34:23.647Z,76.22
2023-05-21T00:36:53.066Z,75.92
2023-05-21T00:39:20.672Z,75.93
2023-05-21T00:41:48.269Z,75.84
2023-05-21T00:44:17.890Z,75.83
2023-05-21T00:46:48.838Z,75.87
2023-05-21T00:49:16.850Z,76.03
2023-05-21T00:51:44.754Z,75.91
2023-05-21T00:54:13.242Z,75.88
2023-05-21T00:56:41.900Z,75.79
2023-05-21T00:59:09.337Z,75.86
2023-05-21T01:01:37.366Z,76.00
2023-05-21T01:04:05.260Z,76.11
2023-05-21T01:06:35.554Z,76.07
2023-05-21T01:09:05.472Z,76.02
2023-05-21T01:11:40.554Z,76.27
2023-05-21T01:14:10.177Z,76.41
2023-05-21T01:16:38.960Z,76.48
2023-05-21T01:19:10.041Z,76.49
2023-05-21T01:21:42.086Z,76.58
2023-05-21T01:24:09.579Z,76.29
2023-05-21T01:26:38.489Z,76.48
2023-05-21T01:29:06.456Z,76.80
2023-05-21T01:32:05.015Z,76.69
2023-05-21T01:34:57.482Z,76.42
2023-05-21T01:37:34.977Z,76.37
2023-05-21T01:40:10.892Z,76.34
2023-05-21T01:42:42.889Z,76.46
2023-05-21T01:45:12.203Z,76.64
2023-05-21T01:47:40.738Z,76.52
2023-05-21T01:50:09.542Z,76.19
2023-05-21T01:52:37.336Z,76.43
2023-05-21T01:55:05.561Z,76.64
2023-05-21T01:57:32.768Z,76.81
2023-05-21T02:00:01.324Z,76.87
2023-05-21T02:02:29.159Z,76.88
2023-05-21T02:04:56.419Z,76.88
2023-05-21T02:07:24.596Z,77.12
2023-05-21T02:09:52.021Z,77.45
2023-05-21T02:12:19.203Z,77.40
2023-05-21T02:14:50.145Z,77.12
2023-05-21T02:17:18.141Z,77.03
2023-05-21T02:19:45.687Z,76.92
2023-05-21T02:22:13.943Z,76.87
2023-05-21T02:24:42.554Z,76.94
2023-05-21T02:27:10.252Z,76.96
2023-05-21T02:29:37.738Z,77.02
2023-05-21T02:32:05.549Z,77.02
2023-05-21T02:34:36.154Z,77.29
2023-05-21T02:37:03.734Z,77.52
2023-05-21T02:39:31.072Z,77.58
2023-05-21T02:41:58.478Z,77.56
2023-05-21T02:44:25.913Z,77.55
2023-05-21T02:46:54.978Z,77.42
2023-05-21T02:49:22.577Z,77.32
2023-05-21T02:51:50.804Z,77.23
2023-05-21T02:54:18.522Z,77.19
2023-05-21T02:56:46.353Z,77.35
2023-05-21T02:59:13.897Z,77.51
2023-05-21T03:01:41.456Z,77.32
2023-05-21T03:04:09.241Z,77.20
2023-05-21T03:06:37.090Z,77.20
2023-05-21T03:09:06.256Z,77.24
2023-05-21T03:11:33.629Z,77.31
2023-05-21T03:14:01.748Z,77.35
2023-05-21T03:16:29.399Z,77.36
2023-05-21T03:18:56.583Z,77.30
2023-05-21T03:21:24.424Z,77.46
2023-05-21T03:23:52.750Z,77.68
2023-05-21T03:26:21.634Z,77.80
2023-05-21T03:28:49.633Z,77.84
2023-05-21T03:31:17.296Z,77.40
2023-05-21T03:33:49.557Z,77.54
2023-05-21T03:36:29.097Z,77.58
2023-05-21T03:38:56.357Z,77.48
2023-05-21T03:41:23.680Z,77.51
2023-05-21T03:43:55.800Z,77.63
2023-05-21T03:46:25.905Z,77.80
2023-05-21T03:49:01.336Z,77.86
2023-05-21T03:51:31.231Z,77.87
2023-05-21T03:53:59.361Z,77.95
2023-05-21T03:56:27.321Z,78.06
2023-05-21T03:58:54.650Z,77.96
2023-05-21T04:01:21.928Z,78.04
2023-05-21T04:03:50.422Z,78.20
2023-05-21T04:06:18.686Z,78.21
2023-05-21T04:08:46.387Z,78.16
2023-05-21T04:11:14.328Z,78.13
2023-05-21T04:13:41.458Z,78.20
2023-05-21T04:16:09.186Z,78.44
2023-05-21T04:18:37.006Z,78.50
2023-05-21T04:21:04.565Z,78.67
2023-05-21T04:23:33.196Z,78.85
2023-05-21T04:26:02.577Z,79.05
2023-05-21T04:28:30.410Z,79.36
2023-05-21T04:30:58.323Z,79.52
2023-05-21T04:33:26.004Z,79.53
2023-05-21T04:35:53.335Z,79.74
2023-05-21T04:38:21.483Z,80.10
2023-05-21T04:40:50.904Z,80.11
2023-05-21T04:43:25.758Z,80.12
2023-05-21T04:45:57.083Z,80.12
2023-05-21T04:48:26.546Z,79.57
2023-05-21T04:50:55.571Z,79.90
2023-05-21T04:53:25.858Z,79.88
2023-05-21T04:55:53.381Z,79.89
2023-05-21T04:58:20.780Z,79.50
2023-05-21T05:00:51.025Z,78.82
2023-05-21T05:03:19.647Z,78.64
2023-05-21T05:05:47.022Z,78.64
2023-05-21T05:08:16.022Z,78.61
2023-05-21T05:10:43.837Z,78.63
2023-05-21T05:13:12.159Z,78.36
2023-05-21T05:15:40.413Z,78.01
2023-05-21T05:18:08.951Z,78.08
2023-05-21T05:20:36.403Z,77.98
2023-05-21T05:23:04.211Z,77.85
2023-05-21T05:25:32.355Z,78.30
2023-05-21T05:27:59.913Z,77.51
2023-05-21T05:30:27.808Z,77.32
2023-05-21T05:32:56.653Z,77.34
2023-05-21T05:35:24.172Z,77.28
2023-05-21T05:37:51.710Z,76.61
2023-05-21T05:40:19.306Z,76.75
2023-05-21T05:42:49.276Z,76.82
2023-05-21T05:45:17.555Z,76.50
2023-05-21T05:47:45.107Z,75.45
2023-05-21T05:50:12.703Z,74.91
2023-05-21T05:52:40.547Z,75.20
2023-05-21T05:55:08.579Z,75.33
2023-05-21T05:57:35.985Z,74.53
2023-05-21T06:00:10.355Z,73.65
2023-05-21T06:02:40.685Z,72.66
2023-05-21T06:05:09.647Z,72.68
2023-05-21T06:07:38.602Z,72.68
2023-05-21T06:10:07.376Z,72.93
2023-05-21T06:12:35.118Z,72.86
2023-05-21T06:15:03.359Z,70.89
2023-05-21T06:17:31.580Z,70.34
2023-05-21T06:19:59.255Z,69.61
2023-05-21T06:22:27.377Z,69.36
2023-05-21T06:24:55.727Z,69.70
2023-05-21T06:27:22.959Z,68.99
2023-05-21T06:29:51.167Z,66.91
2023-05-21T06:32:21.090Z,66.88
2023-05-21T06:34:49.116Z,66.79
2023-05-21T06:37:21.745Z,67.16
2023-05-21T06:39:49.668Z,66.70
2023-05-21T06:42:17.102Z,66.49
2023-05-21T06:45:13.951Z,63.42
2023-05-21T06:47:44.516Z,62.76
2023-05-21T06:50:12.967Z,63.38
2023-05-21T06:52:41.205Z,63.29
2023-05-21T06:55:09.140Z,62.08
2023-05-21T06:57:57.715Z,62.44
2023-05-21T07:00:25.550Z,59.11
2023-05-21T07:02:53.910Z,58.18
2023-05-21T07:05:21.968Z,58.42
2023-05-21T07:07:49.346Z,58.17
2023-05-21T07:10:16.738Z,58.75
2023-05-21T07:12:44.725Z,58.40
2023-05-21T07:15:12.343Z,57.67
2023-05-21T07:17:39.630Z,58.25
2023-05-21T07:20:09.053Z,57.39
2023-05-21T07:22:42.487Z,56.25
2023-05-21T07:25:10.626Z,56.23
2023-05-21T07:27:37.906Z,56.14
2023-05-21T07:30:05.938Z,55.98
2023-05-21T07:32:33.735Z,54.37
2023-05-21T07:35:04.032Z,54.53
2023-05-21T07:37:31.943Z,54.06
2023-05-21T07:40:00.661Z,54.25
2023-05-21T07:42:28.352Z,54.10
2023-05-21T07:44:56.566Z,53.87
2023-05-21T07:47:24.929Z,53.40
2023-05-21T07:49:52.596Z,52.79
2023-05-21T07:52:19.975Z,52.50
2023-05-21T07:54:47.899Z,51.85
2023-05-21T07:57:15.877Z,51.98
2023-05-21T07:59:51.942Z,51.63
2023-05-21T08:02:19.650Z,51.00
2023-05-21T08:04:47.024Z,50.96
2023-05-21T08:07:20.044Z,50.38
2023-05-21T08:09:47.448Z,50.22
2023-05-21T08:12:15.575Z,48.91
2023-05-21T08:14:43.444Z,48.77
2023-05-21T08:17:12.062Z,49.73
2023-05-21T08:19:39.997Z,49.59
2023-05-21T08:22:08.789Z,49.67
2023-05-21T08:24:37.364Z,49.27
2023-05-21T08:27:05.217Z,48.22
2023-05-21T08:29:33.699Z,48.15
2023-05-21T08:32:01.477Z,48.16
2023-05-21T08:34:28.752Z,48.64
2023-05-21T08:37:18.338Z,48.49
2023-05-21T08:39:58.309Z,48.13
2023-05-21T08:42:45.809Z,48.00
2023-05-21T08:45:21.666Z,47.66
2023-05-21T08:47:56.887Z,46.50
2023-05-21T08:50:27.314Z,46.42
2023-05-21T08:52:55.304Z,45.74
2023-05-21T08:55:23.710Z,45.89
2023-05-21T08:57:54.084Z,46.01
2023-05-21T09:00:22.008Z,45.99
2023-05-21T09:02:54.112Z,46.12
2023-05-21T09:05:22.363Z,46.46
2023-05-21T09:08:08.998Z,46.24
2023-05-21T09:11:01.872Z,46.43
2023-05-21T09:13:34.451Z,46.65
2023-05-21T09:16:06.213Z,46.68
2023-05-21T09:18:33.823Z,46.48
2023-05-21T09:21:31.509Z,46.59
2023-05-21T09:24:09.130Z,46.61
2023-05-21T09:26:37.132Z,46.51
2023-05-21T09:29:06.066Z,46.60
2023-05-21T09:31:33.759Z,46.70
2023-05-21T09:34:01.845Z,46.69
2023-05-21T09:36:29.123Z,46.52
2023-05-21T09:39:00.367Z,46.59
2023-05-21T09:41:35.619Z,46.56
2023-05-21T09:44:06.902Z,46.73
2023-05-21T09:46:42.242Z,46.79
2023-05-21T09:49:28.584Z,46.79
2023-05-21T09:51:57.433Z,46.97
2023-05-21T09:54:30.465Z,46.97
2023-05-21T09:57:00.049Z,46.86
2023-05-21T09:59:37.235Z,47.08
2023-05-21T10:02:16.798Z,47.14
2023-05-21T10:04:48.588Z,47.19
2023-05-21T10:07:20.189Z,47.36
2023-05-21T10:09:48.844Z,47.29
2023-05-21T10:12:19.436Z,47.15
2023-05-21T10:14:52.298Z,47.36
2023-05-21T10:17:22.972Z,47.24
2023-05-21T10:19:52.461Z,47.27
2023-05-21T10:22:20.182Z,47.41
2023-05-21T10:24:49.156Z,47.19
2023-05-21T10:27:17.505Z,47.38
2023-05-21T10:29:46.139Z,47.18
2023-05-21T10:32:16.208Z,47.10
2023-05-21T10:34:43.908Z,47.24
2023-05-21T10:37:13.458Z,47.17
2023-05-21T10:39:42.966Z,47.24
2023-05-21T10:42:32.614Z,47.39
2023-05-21T10:45:40.153Z,47.27
2023-05-21T10:48:23.580Z,47.40
2023-05-21T10:51:01.346Z,47.55
2023-05-21T10:54:06.749Z,47.56
2023-05-21T10:57:01.903Z,47.56
2023-05-21T10:59:48.529Z,47.64
2023-05-21T11:02:19.053Z,47.79
2023-05-21T11:04:49.355Z,47.73
2023-05-21T11:07:24.313Z,47.77
2023-05-21T11:09:51.886Z,47.84
2023-05-21T11:12:22.887Z,47.85
2023-05-21T11:14:58.278Z,47.86
2023-05-21T11:17:44.046Z,48.06
2023-05-21T11:20:16.335Z,48.04
2023-05-21T11:22:46.310Z,48.02
2023-05-21T11:25:15.181Z,48.08
2023-05-21T11:27:42.820Z,48.01
2023-05-21T11:30:16.099Z,48.03
2023-05-21T11:33:09.866Z,47.93
2023-05-21T11:35:59.794Z,47.82
2023-05-21T11:38:31.702Z,48.01
2023-05-21T11:41:05.739Z,47.98
2023-05-21T11:43:33.394Z,48.16
2023-05-21T11:46:01.829Z,48.00
2023-05-21T11:48:32.545Z,47.95
2023-05-21T11:51:01.975Z,47.93
2023-05-21T11:53:31.556Z,47.89
2023-05-21T11:56:01.633Z,47.87
2023-05-21T11:58:31.107Z,47.57
2023-05-21T12:00:58.888Z,47.48
2023-05-21T12:03:26.678Z,47.66
2023-05-21T12:05:54.837Z,47.55
2023-05-21T12:08:28.936Z,47.36
2023-05-21T12:11:00.279Z,47.38
2023-05-21T12:13:28.377Z,47.19
2023-05-21T12:15:55.717Z,46.85
2023-05-21T12:18:23.155Z,46.95
2023-05-21T12:20:54.363Z,46.76
2023-05-21T12:23:25.102Z,46.53
2023-05-21T12:25:53.348Z,46.41
2023-05-21T12:28:22.576Z,46.25
2023-05-21T12:30:51.037Z,46.27
2023-05-21T12:33:18.569Z,46.23
2023-05-21T12:35:49.297Z,46.10
2023-05-21T12:38:16.721Z,45.51
2023-05-21T12:40:45.214Z,45.71
2023-05-21T12:43:12.990Z,45.74
2023-05-21T12:45:40.772Z,45.28
2023-05-21T12:48:08.546Z,44.91
2023-05-21T12:50:39.367Z,45.04
2023-05-21T12:53:10.255Z,45.09
2023-05-21T12:55:41.435Z,45.24
2023-05-21T12:58:13.682Z,45.20
2023-05-21T13:00:45.077Z,45.29
2023-05-21T13:03:13.802Z,44.93
2023-05-21T13:05:41.969Z,44.68
2023-05-21T13:08:10.199Z,44.88
2023-05-21T13:10:38.219Z,44.63
2023-05-21T13:13:05.847Z,44.44
2023-05-21T13:15:33.287Z,44.72
2023-05-21T13:18:01.547Z,44.60
2023-05-21T13:20:29.409Z,44.41
2023-05-21T13:22:57.146Z,44.36
2023-05-21T13:25:29.389Z,44.40
2023-05-21T13:27:58.262Z,44.43
2023-05-21T13:30:26.122Z,44.28
2023-05-21T13:32:54.551Z,44.17
2023-05-21T13:35:22.210Z,44.11
2023-05-21T13:37:49.922Z,43.56
2023-05-21T13:40:17.193Z,43.71
2023-05-21T13:42:47.576Z,43.88
2023-05-21T13:45:17.651Z,44.09
2023-05-21T13:47:45.385Z,44.04
2023-05-21T13:50:13.526Z,43.83
2023-05-21T13:52:41.191Z,43.77
2023-05-21T13:55:11.378Z,43.86
2023-05-21T13:57:40.305Z,43.86
2023-05-21T14:00:13.778Z,43.50
2023-05-21T14:02:43.910Z,43.65
2023-05-21T14:05:12.396Z,43.78
2023-05-21T14:07:39.694Z,43.81
2023-05-21T14:10:07.459Z,43.61
2023-05-21T14:12:35.399Z,43.31
2023-05-21T14:15:02.688Z,43.30
2023-05-21T14:17:31.590Z,43.23
2023-05-21T14:19:59.238Z,43.19
2023-05-21T14:22:26.426Z,43.32
2023-05-21T14:24:54.063Z,43.24
2023-05-21T14:27:21.579Z,43.38
2023-05-21T14:29:48.729Z,43.29
2023-05-21T14:32:18.421Z,43.32
2023-05-21T14:34:45.737Z,42.97
2023-05-21T14:37:14.601Z,42.94
2023-05-21T14:39:42.132Z,43.08
2023-05-21T14:42:09.616Z,43.19
2023-05-21T14:44:37.104Z,43.20
2023-05-21T14:47:04.740Z,43.05
2023-05-21T14:49:32.239Z,42.97
2023-05-21T14:51:59.663Z,42.92
2023-05-21T14:54:26.891Z,43.00
2023-05-21T14:56:55.433Z,43.12
2023-05-21T14:59:23.026Z,42.95
2023-05-21T15:01:50.761Z,43.04
2023-05-21T15:04:18.281Z,43.00
2023-05-21T15:06:45.512Z,42.85
2023-05-21T15:09:13.258Z,42.81
2023-05-21T15:11:43.426Z,42.80
2023-05-21T15:14:10.532Z,42.88
2023-05-21T15:16:38.576Z,42.74
2023-05-21T15:19:06.236Z,42.64
2023-05-21T15:21:33.337Z,42.30
2023-05-21T15:24:00.890Z,42.36
2023-05-21T15:26:28.130Z,42.36
2023-05-21T15:28:55.442Z,42.19
2023-05-21T15:31:24.431Z,42.33
2023-05-21T15:33:51.713Z,42.22
2023-05-21T15:36:18.974Z,41.76
2023-05-21T15:38:46.495Z,41.82
2023-05-21T15:41:13.964Z,41.69
2023-05-21T15:43:41.829Z,41.68
2023-05-21T15:46:12.704Z,41.68
2023-05-21T15:48:41.515Z,41.98
2023-05-21T15:51:08.789Z,41.90
2023-05-21T15:53:36.433Z,41.79
2023-05-21T15:56:04.447Z,41.64
2023-05-21T15:58:31.689Z,41.78
2023-05-21T16:00:59.090Z,41.82
2023-05-21T16:03:27.951Z,41.90
2023-05-21T16:05:55.369Z,41.92
2023-05-21T16:08:22.711Z,41.66
2023-05-21T16:10:50.696Z,41.49
2023-05-21T16:13:17.924Z,41.52
2023-05-21T16:15:45.932Z,41.53
2023-05-21T16:18:14.029Z,41.69
2023-05-21T16:20:41.189Z,41.83
2023-05-21T16:23:08.908Z,41.91
2023-05-21T16:25:37.047Z,41.89
2023-05-21T16:28:04.728Z,42.04
2023-05-21T16:30:32.504Z,41.91
2023-05-21T16:33:00.344Z,41.90
2023-05-21T16:35:27.961Z,42.01
2023-05-21T16:37:55.763Z,42.22
2023-05-21T16:40:23.526Z,42.35
2023-05-21T16:42:52.763Z,42.47
2023-05-21T16:45:21.356Z,42.61
2023-05-21T16:47:51.072Z,42.85
2023-05-21T16:50:21.616Z,42.85
2023-05-21T16:52:48.940Z,42.89
2023-05-21T16:55:16.527Z,42.90
2023-05-21T16:57:43.958Z,43.07
2023-05-21T17:00:11.995Z,43.08
2023-05-21T17:02:39.435Z,43.26
2023-05-21T17:05:30.548Z,43.49
2023-05-21T17:08:17.175Z,43.54
2023-05-21T17:11:03.234Z,43.69
2023-05-21T17:13:46.081Z,43.93
2023-05-21T17:16:28.858Z,44.12
2023-05-21T17:19:11.584Z,44.26
2023-05-21T17:21:54.093Z,44.53
2023-05-21T17:24:36.553Z,44.55
2023-05-21T17:27:21.644Z,44.72
2023-05-21T17:30:07.879Z,44.96
2023-05-21T17:32:51.270Z,45.15
2023-05-21T17:35:38.779Z,45.22
2023-05-21T17:38:21.722Z,45.43
2023-05-21T17:41:04.115Z,45.44
2023-05-21T17:43:52.421Z,45.54
2023-05-21T17:46:37.783Z,45.67
2023-05-21T17:49:12.995Z,45.84
2023-05-21T17:51:40.396Z,46.04
2023-05-21T17:54:11.583Z,45.99
2023-05-21T17:56:39.387Z,46.09
2023-05-21T17:59:08.212Z,46.07
2023-05-21T18:01:36.770Z,46.20
2023-05-21T18:04:12.343Z,46.26
2023-05-21T18:06:39.962Z,46.27
2023-05-21T18:09:10.006Z,46.26
2023-05-21T18:11:37.970Z,46.22
2023-05-21T18:14:05.592Z,46.48
2023-05-21T18:16:33.758Z,46.37
2023-05-21T18:19:07.362Z,46.47
2023-05-21T18:21:35.308Z,46.68
2023-05-21T18:24:06.013Z,46.73
2023-05-21T18:26:33.397Z,46.84
2023-05-21T18:29:01.061Z,46.85
2023-05-21T18:31:28.273Z,46.91
2023-05-21T18:33:56.147Z,47.00
2023-05-21T18:36:23.699Z,47.12
2023-05-21T18:38:51.918Z,47.07
2023-05-21T18:41:19.928Z,47.10
2023-05-21T18:43:47.339Z,47.11
2023-05-21T18:46:14.661Z,47.16
2023-05-21T18:48:43.620Z,47.34
2023-05-21T18:51:11.074Z,47.37
2023-05-21T18:53:38.905Z,47.47
2023-05-21T18:56:07.463Z,47.52
2023-05-21T18:58:35.684Z,47.53
2023-05-21T19:01:03.022Z,47.66
2023-05-21T19:03:33.396Z,47.64
2023-05-21T19:06:01.930Z,47.75
2023-05-21T19:08:29.034Z,47.81
2023-05-21T19:10:56.526Z,47.91
2023-05-21T19:13:24.359Z,47.99
2023-05-21T19:15:54.680Z,47.92
2023-05-21T19:18:22.254Z,47.88
2023-05-21T19:20:49.918Z,47.98
2023-05-21T19:23:17.062Z,47.98
2023-05-21T19:25:44.551Z,48.02
2023-05-21T19:28:13.225Z,47.99
2023-05-21T19:30:40.923Z,48.05
2023-05-21T19:33:08.677Z,48.14
2023-05-21T19:35:37.379Z,48.21
2023-05-21T19:38:05.501Z,48.14
2023-05-21T19:40:33.466Z,48.18
2023-05-21T19:43:02.450Z,48.19
2023-05-21T19:45:29.667Z,48.27
2023-05-21T19:47:59.548Z,48.26
2023-05-21T19:50:28.164Z,48.29
2023-05-21T19:52:56.726Z,48.23
2023-05-21T19:55:24.356Z,48.25
2023-05-21T19:57:52.319Z,48.28
2023-05-21T20:00:19.779Z,48.34
2023-05-21T20:02:47.971Z,48.30
2023-05-21T20:05:18.133Z,48.41
2023-05-21T20:07:48.182Z,48.39
2023-05-21T20:10:15.487Z,48.40
2023-05-21T20:12:43.373Z,48.50
2023-05-21T20:15:12.767Z,48.57
2023-05-21T20:17:42.213Z,48.56
2023-05-21T20:20:12.133Z,48.69
2023-05-21T20:22:39.516Z,48.70
2023-05-21T20:25:08.840Z,48.82
2023-05-21T20:27:38.623Z,48.87
2023-05-21T20:30:07.352Z,48.93
2023-05-21T20:32:35.854Z,49.04
2023-05-21T20:35:04.070Z,49.08
2023-05-21T20:37:34.686Z,49.04
2023-05-21T20:40:06.484Z,49.11
2023-05-21T20:42:35.049Z,49.05
2023-05-21T20:45:03.479Z,49.03
2023-05-21T20:47:31.945Z,49.04
2023-05-21T20:49:59.744Z,49.16
2023-05-21T20:52:27.061Z,49.15
2023-05-21T20:54:54.884Z,49.24
2023-05-21T20:57:23.644Z,49.43
2023-05-21T20:59:53.587Z,49.51
2023-05-21T21:02:21.540Z,49.53
2023-05-21T21:04:50.235Z,49.53
2023-05-21T21:07:18.051Z,49.55
2023-05-21T21:09:46.611Z,49.68
2023-05-21T21:14:46.936Z,49.90
2023-05-21T21:17:14.406Z,50.00
2023-05-21T21:19:42.067Z,49.96
2023-05-21T21:22:09.257Z,49.90
2023-05-21T21:24:36.781Z,50.10
2023-05-21T21:27:04.713Z,50.17
2023-05-21T21:29:32.392Z,50.10
2023-05-21T21:31:59.935Z,50.10
2023-05-21T21:34:27.651Z,50.10
2023-05-21T21:36:55.263Z,50.11
2023-05-21T21:39:22.868Z,50.23
2023-05-21T21:41:50.333Z,50.53
2023-05-21T21:44:17.815Z,50.74
2023-05-21T21:46:45.368Z,50.84
2023-05-21T21:49:13.969Z,50.83
2023-05-21T21:51:41.576Z,50.85
2023-05-21T21:54:09.030Z,50.92
2023-05-21T21:56:36.532Z,51.16
2023-05-21T21:59:05.216Z,51.27
2023-05-21T22:01:33.218Z,51.30
2023-05-21T22:04:00.858Z,51.39
2023-05-21T22:06:28.170Z,51.52
2023-05-21T22:08:55.538Z,51.51
2023-05-21T22:11:23.205Z,51.40
2023-05-21T22:13:50.596Z,51.20
2023-05-21T22:16:18.349Z,51.54
2023-05-21T22:18:46.175Z,51.49
2023-05-21T22:21:13.741Z,51.75
2023-05-21T22:23:41.504Z,51.99
2023-05-21T22:26:09.827Z,51.81
2023-05-21T22:28:37.000Z,51.75
2023-05-21T22:31:04.727Z,51.89
2023-05-21T22:33:32.076Z,52.09
2023-05-21T22:35:59.261Z,52.21
2023-05-21T22:38:27.180Z,52.21
2023-05-21T22:40:54.464Z,52.19
2023-05-21T22:43:21.963Z,52.17
2023-05-21T22:45:49.966Z,52.30
2023-05-21T22:48:17.926Z,52.36
2023-05-21T22:50:45.746Z,52.34
2023-05-21T22:53:13.206Z,52.39
2023-05-21T22:55:40.727Z,52.46
2023-05-21T22:58:07.898Z,52.38
2023-05-21T23:00:35.641Z,52.47
2023-05-21T23:03:04.302Z,52.65
2023-05-21T23:05:31.664Z,52.76
2023-05-21T23:07:58.949Z,52.74
2023-05-21T23:10:26.811Z,52.75
2023-05-21T23:12:53.950Z,52.81
2023-05-21T23:15:21.732Z,52.88
2023-05-21T23:17:49.607Z,52.90
2023-05-21T23:20:16.937Z,53.01
2023-05-21T23:22:44.504Z,53.12
2023-05-21T23:25:11.832Z,53.13
2023-05-21T23:27:38.964Z,53.13
2023-05-21T23:30:06.962Z,53.14
2023-05-21T23:32:34.719Z,53.27
2023-05-21T23:35:01.904Z,53.38
2023-05-21T23:37:29.673Z,53.33
2023-05-21T23:39:57.341Z,53.19
2023-05-21T23:42:24.530Z,53.28
2023-05-21T23:44:52.444Z,53.37
2023-05-21T23:47:19.959Z,53.39
2023-05-21T23:49:47.037Z,53.46
2023-05-21T23:52:17.246Z,53.71
2023-05-21T23:54:44.521Z,53.74
2023-05-21T23:57:12.945Z,53.86
2023-05-21T23:59:40.879Z,53.88
